Time;durP1;ratioP1;P1;durP2;ratioP2;P2;SDS_P1;SDS_P2;PMS_P1;PMS_P2;Temp;Humidity;BMP_temperature;BMP_pressure;BME280_temperature;BME280_humidity;BME280_pressure;Samples;Min_cycle;Max_cycle;Signal;HPM_P1;HPM_P2
2022/09/17 00:00:57;;;;;;;3.05;0.93;;;13.00;96.80;;;;;;5069304;28;20042;-82
2022/09/17 00:03:23;;;;;;;3.55;0.88;;;13.00;96.80;;;;;;5074608;28;20477;-81
2022/09/17 00:05:49;;;;;;;1.95;0.60;;;13.00;96.90;;;;;;5072674;28;20048;-83
2022/09/17 00:08:15;;;;;;;2.90;0.73;;;13.00;96.90;;;;;;5074835;28;20106;-83
2022/09/17 00:10:43;;;;;;;7.80;0.70;;;13.00;97.10;;;;;;5076959;28;20031;-82
2022/09/17 00:13:09;;;;;;;2.22;0.80;;;13.00;97.00;;;;;;5070805;28;20027;-81
2022/09/17 00:15:42;;;;;;;4.03;1.95;;;13.00;97.20;;;;;;5075719;28;20051;-81
2022/09/17 00:18:08;;;;;;;3.38;0.80;;;12.90;97.30;;;;;;5064285;28;20021;-81
2022/09/17 00:20:41;;;;;;;4.07;0.80;;;12.90;97.30;;;;;;5076781;28;20380;-82
2022/09/17 00:23:07;;;;;;;2.65;0.73;;;12.90;97.50;;;;;;5070595;28;20103;-84
2022/09/17 00:25:33;;;;;;;2.90;0.95;;;12.90;97.50;;;;;;5080526;28;20170;-83
2022/09/17 00:27:58;;;;;;;3.08;0.88;;;12.90;97.40;;;;;;5067444;28;20355;-81
2022/09/17 00:30:24;;;;;;;3.55;0.85;;;13.00;97.60;;;;;;5068962;28;20388;-82
2022/09/17 00:32:52;;;;;;;3.03;0.68;;;13.00;97.60;;;;;;5077214;28;20584;-82
2022/09/17 00:35:17;;;;;;;2.40;0.93;;;13.00;97.60;;;;;;5075095;28;20039;-83
2022/09/17 00:37:42;;;;;;;4.90;0.93;;;13.00;97.70;;;;;;5072071;28;20023;-82
2022/09/17 00:40:09;;;;;;;3.55;0.63;;;13.00;97.60;;;;;;5067233;28;20111;-81
2022/09/17 00:42:34;;;;;;;4.63;1.05;;;13.00;97.50;;;;;;5067145;28;20025;-84
2022/09/17 00:45:00;;;;;;;4.85;0.70;;;13.10;97.60;;;;;;5072027;28;20032;-81
2022/09/17 00:47:39;;;;;;;2.30;0.77;;;13.10;97.60;;;;;;5070896;28;20059;-82
2022/09/17 00:50:09;;;;;;;3.95;0.90;;;13.10;97.90;;;;;;5073263;28;20056;-82
2022/09/17 00:52:51;;;;;;;2.40;0.50;;;13.10;97.60;;;;;;5065973;28;20064;-84
2022/09/17 00:55:44;;;;;;;8.00;1.20;;;13.10;97.60;;;;;;5066938;28;20896;-82
2022/09/17 00:58:11;;;;;;;5.78;1.10;;;13.10;97.70;;;;;;5069915;28;20491;-83
2022/09/17 01:00:38;;;;;;;5.18;0.88;;;13.00;97.80;;;;;;5070624;28;20490;-81
2022/09/17 01:03:04;;;;;;;3.78;1.15;;;13.00;97.90;;;;;;5070160;28;20112;-82
2022/09/17 01:05:32;;;;;;;2.78;0.60;;;13.00;98.10;;;;;;5066690;28;20028;-81
2022/09/17 01:08:48;;;;;;;2.85;0.63;;;13.10;98.00;;;;;;5065304;28;20033;-81
2022/09/17 01:11:35;;;;;;;6.60;1.42;;;13.10;98.00;;;;;;5015055;28;20037;-81
2022/09/17 01:14:18;;;;;;;2.25;0.90;;;13.20;97.80;;;;;;5068938;28;20492;-82
2022/09/17 01:17:10;;;;;;;1.58;0.63;;;13.20;98.10;;;;;;5060880;28;20119;-82
2022/09/17 01:20:13;;;;;;;3.85;0.70;;;13.20;98.00;;;;;;5071295;28;20034;-83
2022/09/17 01:23:03;;;;;;;3.28;0.80;;;13.20;97.80;;;;;;5065535;28;20113;-82
2022/09/17 01:26:01;;;;;;;2.90;0.57;;;13.30;98.00;;;;;;5077769;28;20051;-82
2022/09/17 01:28:59;;;;;;;1.35;0.60;;;13.30;98.00;;;;;;5046075;28;20074;-82
2022/09/17 01:31:34;;;;;;;3.83;0.75;;;13.30;98.00;;;;;;5073246;28;20115;-81
2022/09/17 01:34:26;;;;;;;2.28;0.65;;;13.40;98.00;;;;;;5070141;28;20029;-82
2022/09/17 01:37:01;;;;;;;3.17;0.70;;;13.40;98.10;;;;;;5065956;28;20048;-83
2022/09/17 01:39:42;;;;;;;7.10;0.60;;;13.40;98.10;;;;;;5068419;28;20117;-83
2022/09/17 01:42:31;;;;;;;5.95;0.70;;;13.40;98.10;;;;;;5061739;28;20032;-82
2022/09/17 01:45:05;;;;;;;1.85;0.65;;;13.50;98.10;;;;;;5070044;28;20078;-83
2022/09/17 01:47:38;;;;;;;1.15;0.60;;;13.50;98.00;;;;;;5070267;28;20028;-82
2022/09/17 01:50:09;;;;;;;2.60;0.60;;;13.50;98.10;;;;;;5067219;28;20059;-82
2022/09/17 01:52:38;;;;;;;5.93;0.60;;;13.50;98.10;;;;;;5074980;28;20041;-83
2022/09/17 01:55:08;;;;;;;2.05;0.50;;;13.50;98.30;;;;;;5080642;28;20093;-83
2022/09/17 01:57:49;;;;;;;3.75;0.52;;;13.50;98.10;;;;;;5073603;28;20044;-83
2022/09/17 02:00:16;;;;;;;1.42;0.60;;;13.50;98.20;;;;;;5077703;28;20105;-84
2022/09/17 02:03:02;;;;;;;2.70;0.82;;;13.50;98.10;;;;;;5077320;28;20029;-82
2022/09/17 02:05:38;;;;;;;3.10;0.50;;;13.60;98.20;;;;;;5074364;28;20076;-82
2022/09/17 02:08:13;;;;;;;2.83;1.08;;;13.60;98.10;;;;;;5079401;28;20038;-84
2022/09/17 02:10:50;;;;;;;3.05;1.00;;;13.60;98.20;;;;;;5072744;28;20027;-86
2022/09/17 02:13:29;;;;;;;2.83;0.82;;;13.60;98.10;;;;;;5080674;28;20086;-82
2022/09/17 02:16:04;;;;;;;1.77;0.60;;;13.60;98.20;;;;;;5072010;28;20188;-81
2022/09/17 02:18:42;;;;;;;1.88;0.60;;;13.50;98.30;;;;;;5071448;28;20040;-86
2022/09/17 02:21:30;;;;;;;1.50;0.50;;;13.60;98.40;;;;;;5071702;28;20063;-82
2022/09/17 02:24:26;;;;;;;3.47;0.52;;;13.60;98.30;;;;;;5061588;28;20056;-82
2022/09/17 02:27:06;;;;;;;1.08;0.52;;;13.50;98.60;;;;;;5051235;28;20050;-83
2022/09/17 02:29:35;;;;;;;3.63;1.30;;;13.50;98.80;;;;;;5070991;28;20024;-81
2022/09/17 02:32:01;;;;;;;0.82;0.50;;;13.50;99.10;;;;;;5067615;28;20481;-82
2022/09/17 02:34:28;;;;;;;1.25;0.50;;;13.50;99.10;;;;;;5064031;28;20481;-81
2022/09/17 02:36:55;;;;;;;2.75;0.50;;;13.50;99.20;;;;;;5064307;28;20028;-82
2022/09/17 02:39:20;;;;;;;3.17;0.73;;;13.50;99.40;;;;;;5066734;28;20032;-84
2022/09/17 02:41:53;;;;;;;0.90;0.43;;;13.60;99.40;;;;;;5072236;28;20480;-82
2022/09/17 02:44:41;;;;;;;1.35;0.30;;;13.60;99.10;;;;;;5057132;28;20123;-82
2022/09/17 02:47:20;;;;;;;1.08;0.50;;;13.70;98.80;;;;;;5061855;28;20369;-83
2022/09/17 02:50:05;;;;;;;1.38;0.43;;;13.60;99.00;;;;;;5067276;28;20045;-82
2022/09/17 02:52:48;;;;;;;0.55;0.45;;;13.60;99.10;;;;;;5060624;28;20035;-81
2022/09/17 02:55:31;;;;;;;4.88;0.60;;;13.60;99.20;;;;;;5059502;28;20103;-82
2022/09/17 02:58:11;;;;;;;1.55;0.30;;;13.60;99.10;;;;;;5071450;28;20029;-84
2022/09/17 03:00:37;;;;;;;0.98;0.30;;;13.50;99.40;;;;;;5070429;28;20438;-82
2022/09/17 03:03:40;;;;;;;0.30;0.30;;;13.50;99.60;;;;;;5071913;28;20035;-84
2022/09/17 03:06:05;;;;;;;0.93;0.30;;;13.50;99.60;;;;;;5028802;28;20090;-83
2022/09/17 03:08:39;;;;;;;1.30;0.47;;;13.40;99.80;;;;;;5061875;28;20028;-81
2022/09/17 03:11:07;;;;;;;1.17;0.32;;;13.40;99.90;;;;;;5070083;28;20024;-82
2022/09/17 03:13:34;;;;;;;1.27;0.40;;;13.40;99.90;;;;;;5062108;28;20606;-80
2022/09/17 03:16:00;;;;;;;2.25;0.40;;;13.30;99.90;;;;;;5052627;28;20048;-80
2022/09/17 03:18:25;;;;;;;0.30;0.30;;;13.20;99.90;;;;;;5068672;28;20028;-82
2022/09/17 03:20:51;;;;;;;0.85;0.30;;;13.10;99.90;;;;;;5066987;28;20410;-80
2022/09/17 03:23:16;;;;;;;0.77;0.30;;;13.00;99.90;;;;;;5073817;28;20036;-84
2022/09/17 03:25:42;;;;;;;1.60;0.30;;;12.90;99.90;;;;;;5067615;28;20036;-80
2022/09/17 03:28:07;;;;;;;3.80;0.30;;;12.90;99.90;;;;;;5065564;28;20377;-83
2022/09/17 03:30:32;;;;;;;1.10;0.40;;;12.90;99.90;;;;;;5068771;28;20165;-81
2022/09/17 03:32:58;;;;;;;0.43;0.30;;;12.90;99.90;;;;;;5065599;28;20028;-82
2022/09/17 03:35:24;;;;;;;0.65;0.30;;;12.90;99.90;;;;;;5076897;28;20035;-81
2022/09/17 03:37:49;;;;;;;1.23;0.50;;;12.90;99.90;;;;;;5069637;28;20028;-82
2022/09/17 03:40:15;;;;;;;2.95;0.50;;;12.90;99.90;;;;;;5068700;28;20423;-80
2022/09/17 03:42:40;;;;;;;0.47;0.43;;;12.90;99.90;;;;;;5066942;28;20028;-83
2022/09/17 03:45:06;;;;;;;1.30;0.50;;;12.90;99.90;;;;;;5065398;28;20037;-82
2022/09/17 03:47:32;;;;;;;0.55;0.40;;;12.90;99.90;;;;;;5069640;28;20021;-81
2022/09/17 03:49:57;;;;;;;0.93;0.40;;;13.00;99.90;;;;;;5079861;28;20032;-82
2022/09/17 03:52:23;;;;;;;0.70;0.55;;;13.00;99.90;;;;;;5063607;28;20021;-81
2022/09/17 03:54:48;;;;;;;2.40;0.65;;;13.00;99.90;;;;;;5068472;28;20188;-83
2022/09/17 03:57:14;;;;;;;2.20;0.50;;;13.10;99.90;;;;;;5067529;28;20040;-82
2022/09/17 03:59:39;;;;;;;1.23;0.88;;;13.10;99.90;;;;;;5066561;28;20025;-82
2022/09/17 04:02:05;;;;;;;2.15;1.15;;;13.10;99.90;;;;;;5070017;28;20048;-81
2022/09/17 04:04:31;;;;;;;3.00;0.80;;;13.00;99.90;;;;;;5065608;28;20032;-83
2022/09/17 04:06:56;;;;;;;1.67;0.50;;;12.90;99.90;;;;;;5068779;28;20360;-83
2022/09/17 04:09:22;;;;;;;0.65;0.57;;;12.90;99.90;;;;;;5070403;28;20401;-80
2022/09/17 04:11:47;;;;;;;1.65;0.50;;;12.80;99.90;;;;;;5066133;28;20074;-79
2022/09/17 04:14:13;;;;;;;2.13;0.60;;;12.80;99.90;;;;;;5061490;28;20108;-81
2022/09/17 04:16:38;;;;;;;1.02;0.40;;;12.70;99.90;;;;;;5050066;28;20519;-80
2022/09/17 04:19:04;;;;;;;1.05;0.52;;;12.70;99.90;;;;;;5051077;28;20065;-80
2022/09/17 04:21:29;;;;;;;1.75;0.63;;;12.60;99.90;;;;;;5059938;28;20388;-82
2022/09/17 04:23:55;;;;;;;4.35;0.60;;;12.50;99.90;;;;;;5055624;28;20021;-81
2022/09/17 04:26:20;;;;;;;1.05;0.55;;;12.50;99.90;;;;;;5067144;28;20370;-80
2022/09/17 04:28:46;;;;;;;0.73;0.43;;;12.50;99.90;;;;;;5056552;28;20048;-82
2022/09/17 04:31:11;;;;;;;0.60;0.40;;;12.50;99.90;;;;;;5050518;28;20025;-80
2022/09/17 04:33:37;;;;;;;1.75;0.50;;;12.50;99.90;;;;;;5069279;28;20484;-82
2022/09/17 04:36:02;;;;;;;1.73;0.40;;;12.50;99.90;;;;;;5063704;28;20041;-81
2022/09/17 04:38:28;;;;;;;0.95;0.40;;;12.50;99.90;;;;;;5055017;28;20040;-81
2022/09/17 04:40:56;;;;;;;3.00;0.50;;;12.50;99.90;;;;;;5063900;28;20033;-80
2022/09/17 04:43:21;;;;;;;0.40;0.40;;;12.50;99.90;;;;;;5058709;28;20029;-83
2022/09/17 04:45:48;;;;;;;2.05;0.43;;;12.50;99.90;;;;;;5070034;28;20032;-83
2022/09/17 04:48:13;;;;;;;1.48;0.50;;;12.50;99.90;;;;;;5068964;28;20025;-80
2022/09/17 04:50:39;;;;;;;1.05;0.50;;;12.50;99.90;;;;;;5072493;28;20665;-80
2022/09/17 04:53:04;;;;;;;2.15;0.50;;;12.50;99.90;;;;;;5060156;28;20098;-79
2022/09/17 04:55:30;;;;;;;0.80;0.57;;;12.60;99.90;;;;;;5066249;28;20028;-81
2022/09/17 04:57:56;;;;;;;2.67;0.40;;;12.50;99.90;;;;;;5065688;28;20043;-80
2022/09/17 05:00:22;;;;;;;0.73;0.70;;;12.60;99.90;;;;;;5062920;28;20075;-84
2022/09/17 05:02:49;;;;;;;1.40;0.50;;;12.60;99.90;;;;;;5066888;28;20104;-79
2022/09/17 05:05:16;;;;;;;0.57;0.50;;;12.60;99.90;;;;;;5069382;28;20035;-81
2022/09/17 05:07:42;;;;;;;1.30;0.68;;;12.60;99.90;;;;;;5067975;28;20180;-84
2022/09/17 05:10:08;;;;;;;1.77;0.63;;;12.60;99.90;;;;;;5066330;28;20028;-82
2022/09/17 05:12:34;;;;;;;0.52;0.43;;;12.60;99.90;;;;;;5060196;28;20437;-80
2022/09/17 05:15:00;;;;;;;1.30;0.70;;;12.60;99.90;;;;;;5067106;28;20139;-82
2022/09/17 05:17:25;;;;;;;1.13;0.45;;;12.60;99.90;;;;;;5068078;28;20021;-80
2022/09/17 05:19:52;;;;;;;2.00;0.68;;;12.60;99.90;;;;;;5075456;28;20028;-79
2022/09/17 05:22:18;;;;;;;1.23;0.57;;;12.70;99.90;;;;;;5065598;28;20036;-80
2022/09/17 05:24:43;;;;;;;3.10;0.90;;;12.60;99.90;;;;;;5074452;28;20082;-82
2022/09/17 05:27:09;;;;;;;0.85;0.70;;;12.60;99.90;;;;;;5071880;28;20037;-84
2022/09/17 05:29:35;;;;;;;3.97;0.90;;;12.70;99.90;;;;;;5068206;28;20100;-82
2022/09/17 05:32:02;;;;;;;2.70;0.98;;;12.80;99.90;;;;;;5078220;28;20032;-81
2022/09/17 05:34:28;;;;;;;2.80;0.80;;;12.70;99.90;;;;;;5080238;28;20036;-79
2022/09/17 05:36:54;;;;;;;5.90;0.70;;;12.80;99.90;;;;;;5071481;28;20539;-83
2022/09/17 05:39:24;;;;;;;5.80;1.33;;;12.80;99.90;;;;;;5061775;28;20029;-80
2022/09/17 05:41:53;;;;;;;4.85;1.00;;;12.80;99.90;;;;;;5079487;28;20457;-81
2022/09/17 05:44:19;;;;;;;1.67;1.00;;;12.80;99.90;;;;;;5072724;28;20032;-80
2022/09/17 05:46:45;;;;;;;1.65;1.10;;;12.90;99.90;;;;;;5073836;28;20028;-80
2022/09/17 05:49:12;;;;;;;2.17;1.10;;;12.80;99.90;;;;;;5083950;28;20024;-81
2022/09/17 05:51:37;;;;;;;2.80;1.38;;;12.90;99.90;;;;;;5075494;28;20058;-80
2022/09/17 05:54:03;;;;;;;4.00;1.60;;;12.90;99.90;;;;;;5079400;28;20484;-80
2022/09/17 05:56:28;;;;;;;5.38;1.17;;;13.00;99.90;;;;;;5070062;28;20174;-81
2022/09/17 05:58:55;;;;;;;3.53;1.15;;;13.00;99.90;;;;;;5076821;28;20031;-80
2022/09/17 06:01:21;;;;;;;6.47;1.25;;;13.00;99.90;;;;;;5068935;28;20020;-81
2022/09/17 06:03:47;;;;;;;5.20;1.88;;;13.10;99.90;;;;;;5070850;28;20559;-81
2022/09/17 06:06:12;;;;;;;4.28;1.27;;;13.10;99.90;;;;;;5073418;28;20029;-82
2022/09/17 06:08:38;;;;;;;10.15;1.67;;;13.20;99.90;;;;;;5061836;28;20477;-81
2022/09/17 06:11:04;;;;;;;6.90;1.08;;;13.30;99.90;;;;;;5080495;28;20032;-81
2022/09/17 06:13:30;;;;;;;3.42;1.25;;;13.40;99.90;;;;;;5071449;28;20033;-80
2022/09/17 06:15:55;;;;;;;4.97;1.00;;;13.40;99.90;;;;;;5083191;28;20024;-81
2022/09/17 06:18:21;;;;;;;5.55;1.23;;;13.40;99.90;;;;;;5084144;28;20025;-80
2022/09/17 06:20:58;;;;;;;9.00;1.98;;;13.50;99.90;;;;;;5077411;28;20629;-81
2022/09/17 06:23:24;;;;;;;6.25;1.25;;;13.50;99.90;;;;;;5078426;28;20039;-80
2022/09/17 06:25:57;;;;;;;3.55;1.42;;;13.50;99.90;;;;;;5079389;28;20035;-81
2022/09/17 06:28:24;;;;;;;8.95;1.55;;;13.50;99.90;;;;;;5072810;28;20028;-80
2022/09/17 06:30:53;;;;;;;8.70;2.05;;;13.60;99.90;;;;;;5064312;28;20427;-80
2022/09/17 06:33:19;;;;;;;10.27;1.85;;;13.60;99.90;;;;;;5067997;28;20770;-81
2022/09/17 06:35:45;;;;;;;9.60;1.75;;;13.70;99.90;;;;;;5059167;28;20040;-80
2022/09/17 06:38:10;;;;;;;10.35;1.33;;;13.70;99.90;;;;;;5070725;28;20028;-81
2022/09/17 06:40:36;;;;;;;5.03;1.50;;;13.70;99.90;;;;;;5087260;28;20016;-81
2022/09/17 06:43:01;;;;;;;4.32;1.20;;;13.70;99.90;;;;;;5077988;28;20468;-84
2022/09/17 06:45:27;;;;;;;7.68;1.42;;;13.70;99.90;;;;;;5074948;28;20032;-84
2022/09/17 06:47:53;;;;;;;7.43;1.10;;;13.70;99.90;;;;;;5069453;28;20043;-83
2022/09/17 06:50:18;;;;;;;10.45;1.30;;;13.70;99.90;;;;;;5073895;28;20024;-82
2022/09/17 06:52:48;;;;;;;7.47;1.30;;;13.60;99.90;;;;;;5070969;28;20460;-80
2022/09/17 06:55:14;;;;;;;10.00;1.70;;;13.60;99.90;;;;;;5077139;28;20020;-80
2022/09/17 06:57:40;;;;;;;10.18;1.85;;;13.60;99.90;;;;;;5080251;28;20056;-81
2022/09/17 07:00:07;;;;;;;9.30;1.50;;;13.60;99.90;;;;;;5083815;28;20024;-79
2022/09/17 07:02:32;;;;;;;5.32;1.35;;;13.70;99.90;;;;;;5094589;28;20030;-80
2022/09/17 07:04:59;;;;;;;8.10;1.60;;;13.80;99.90;;;;;;5074935;28;20025;-82
2022/09/17 07:07:25;;;;;;;6.50;1.70;;;13.80;99.90;;;;;;5065913;28;20028;-78
2022/09/17 07:09:52;;;;;;;11.40;1.58;;;13.90;99.90;;;;;;5069160;28;20099;-81
2022/09/17 07:12:18;;;;;;;6.07;1.50;;;13.80;99.90;;;;;;5070047;28;20028;-79
2022/09/17 07:14:43;;;;;;;16.85;1.70;;;13.90;99.90;;;;;;5077822;28;20032;-80
2022/09/17 07:17:09;;;;;;;14.40;2.00;;;14.00;99.90;;;;;;5070273;28;20028;-80
2022/09/17 07:19:35;;;;;;;5.93;1.40;;;14.10;99.90;;;;;;5070113;28;20020;-80
2022/09/17 07:22:00;;;;;;;8.05;1.58;;;14.20;99.90;;;;;;5069767;28;20107;-81
2022/09/17 07:24:25;;;;;;;9.23;1.50;;;14.20;99.90;;;;;;5069943;28;20473;-81
2022/09/17 07:26:51;;;;;;;6.53;1.30;;;14.20;99.90;;;;;;5071066;28;20028;-80
2022/09/17 07:29:17;;;;;;;10.20;1.45;;;14.20;99.90;;;;;;5064434;28;20115;-81
2022/09/17 07:31:42;;;;;;;9.02;1.38;;;14.20;99.90;;;;;;5069182;28;20090;-80
2022/09/17 07:34:09;;;;;;;14.10;1.40;;;14.20;99.90;;;;;;5072584;28;20028;-80
2022/09/17 07:36:35;;;;;;;9.63;1.50;;;14.30;99.90;;;;;;5068692;28;20469;-83
2022/09/17 07:39:00;;;;;;;9.02;1.40;;;14.20;99.90;;;;;;5063678;28;20040;-84
2022/09/17 07:41:26;;;;;;;6.53;1.30;;;14.20;99.90;;;;;;5070170;28;20033;-77
2022/09/17 07:43:53;;;;;;;6.53;1.52;;;14.30;99.90;;;;;;5069706;28;20028;-78
2022/09/17 07:46:20;;;;;;;5.35;1.10;;;14.40;99.90;;;;;;5065254;28;20035;-77
2022/09/17 07:48:46;;;;;;;7.05;1.15;;;14.50;99.90;;;;;;5071884;28;20020;-78
2022/09/17 07:51:20;;;;;;;11.10;1.35;;;14.60;99.90;;;;;;5074901;28;20017;-81
2022/09/17 07:53:46;;;;;;;7.38;1.20;;;14.60;99.20;;;;;;5081422;28;20179;-80
2022/09/17 07:56:12;;;;;;;7.00;1.02;;;14.50;99.10;;;;;;5068222;28;20145;-80
2022/09/17 07:58:37;;;;;;;8.90;2.00;;;14.50;98.40;;;;;;5073840;28;20025;-81
2022/09/17 08:01:05;;;;;;;6.20;1.40;;;14.50;98.30;;;;;;5074776;28;20031;-81
2022/09/17 08:03:31;;;;;;;4.45;1.40;;;14.50;99.00;;;;;;5074753;28;20033;-82
2022/09/17 08:06:06;;;;;;;4.70;0.88;;;14.50;98.40;;;;;;5069835;28;20533;-80
2022/09/17 08:08:33;;;;;;;4.25;0.80;;;14.60;97.80;;;;;;5071448;28;20108;-79
2022/09/17 08:11:03;;;;;;;6.95;0.98;;;14.60;97.60;;;;;;5068615;28;20043;-80
2022/09/17 08:13:29;;;;;;;3.88;0.93;;;14.70;97.10;;;;;;5071517;28;20500;-82
2022/09/17 08:15:59;;;;;;;6.50;0.80;;;14.70;97.40;;;;;;5072412;28;20111;-79
2022/09/17 08:18:26;;;;;;;5.78;1.50;;;14.80;97.30;;;;;;5070526;28;20024;-83
2022/09/17 08:20:54;;;;;;;2.78;0.73;;;14.90;96.80;;;;;;5068206;28;20107;-80
2022/09/17 08:23:20;;;;;;;3.67;0.80;;;14.90;96.90;;;;;;5070622;28;20062;-79
2022/09/17 08:25:51;;;;;;;5.30;1.00;;;14.90;96.10;;;;;;5071515;28;20029;-81
2022/09/17 08:28:17;;;;;;;5.05;1.20;;;14.90;96.50;;;;;;5071656;28;20024;-80
2022/09/17 08:30:42;;;;;;;9.15;1.60;;;14.90;96.30;;;;;;5066407;28;20439;-83
2022/09/17 08:33:08;;;;;;;5.63;1.25;;;14.90;96.90;;;;;;5068788;28;20036;-80
2022/09/17 08:35:33;;;;;;;6.93;1.20;;;14.90;96.30;;;;;;5070405;28;20067;-81
2022/09/17 08:37:59;;;;;;;6.35;0.88;;;14.80;96.00;;;;;;5076600;28;20037;-79
2022/09/17 08:40:26;;;;;;;7.20;1.13;;;14.70;96.00;;;;;;5068049;28;20451;-81
2022/09/17 08:42:59;;;;;;;4.88;1.10;;;14.70;96.30;;;;;;5070119;28;20016;-82
2022/09/17 08:45:25;;;;;;;6.13;1.50;;;14.70;96.00;;;;;;5070630;28;20100;-82
2022/09/17 08:48:00;;;;;;;5.60;1.38;;;14.70;96.30;;;;;;5070452;28;20036;-82
2022/09/17 08:50:32;;;;;;;4.10;0.90;;;14.70;95.70;;;;;;5068885;28;20024;-81
2022/09/17 08:53:22;;;;;;;6.03;1.13;;;14.70;95.90;;;;;;5070485;28;20021;-83
2022/09/17 08:56:13;;;;;;;7.28;0.90;;;14.70;96.10;;;;;;5068403;28;20090;-83
2022/09/17 08:58:56;;;;;;;5.03;1.70;;;14.80;96.00;;;;;;5070764;28;20031;-82
2022/09/17 09:02:02;;;;;;;3.28;1.00;;;14.90;95.40;;;;;;5069067;28;20419;-83
2022/09/17 09:04:42;;;;;;;6.28;1.08;;;14.90;95.50;;;;;;5069393;28;20028;-81
2022/09/17 09:07:17;;;;;;;4.30;0.85;;;14.90;95.40;;;;;;5070254;28;20054;-83
2022/09/17 09:10:12;;;;;;;4.43;0.90;;;15.00;95.40;;;;;;5070784;28;20032;-82
2022/09/17 09:12:39;;;;;;;6.32;0.65;;;15.00;96.30;;;;;;5067693;28;20036;-83
2022/09/17 09:15:17;;;;;;;6.38;1.10;;;15.00;96.50;;;;;;5068706;28;20032;-82
2022/09/17 09:17:45;;;;;;;8.55;1.35;;;15.00;96.40;;;;;;5070379;28;20103;-82
2022/09/17 09:20:25;;;;;;;4.63;0.80;;;15.00;96.90;;;;;;5070285;28;20020;-82
2022/09/17 09:22:51;;;;;;;7.53;1.10;;;15.10;96.80;;;;;;5069889;28;20024;-82
2022/09/17 09:25:23;;;;;;;4.82;0.80;;;15.10;96.30;;;;;;5068725;28;20487;-84
2022/09/17 09:28:07;;;;;;;5.50;1.00;;;15.00;96.10;;;;;;5069935;28;20169;-84
2022/09/17 09:31:08;;;;;;;4.85;0.80;;;15.00;95.90;;;;;;5068350;28;20089;-83
2022/09/17 09:33:40;;;;;;;8.35;1.48;;;15.00;95.60;;;;;;5069151;28;20028;-82
2022/09/17 09:36:10;;;;;;;3.22;0.60;;;15.00;95.60;;;;;;5068342;28;20652;-83
2022/09/17 09:38:44;;;;;;;5.13;1.65;;;15.00;95.40;;;;;;5070557;28;20041;-82
2022/09/17 09:41:11;;;;;;;5.78;1.17;;;15.20;95.60;;;;;;5070347;28;20476;-84
2022/09/17 09:43:45;;;;;;;5.10;1.02;;;15.40;95.60;;;;;;5070197;28;20029;-83
2022/09/17 09:46:48;;;;;;;5.43;1.20;;;15.50;95.60;;;;;;5068428;28;20417;-81
2022/09/17 09:49:28;;;;;;;3.25;1.15;;;15.60;94.90;;;;;;5069835;28;20100;-82
2022/09/17 09:52:06;;;;;;;6.13;0.88;;;15.60;94.30;;;;;;5069955;28;20528;-83
2022/09/17 09:55:05;;;;;;;5.53;1.20;;;15.60;94.20;;;;;;5070503;28;20024;-84
2022/09/17 09:57:46;;;;;;;8.05;1.15;;;15.60;94.10;;;;;;5070015;28;20474;-82
2022/09/17 10:00:27;;;;;;;8.55;0.73;;;15.70;94.20;;;;;;5070580;28;20025;-83
2022/09/17 10:02:59;;;;;;;9.55;1.65;;;15.70;93.80;;;;;;5072284;28;20021;-83
2022/09/17 10:05:24;;;;;;;8.77;1.17;;;15.80;93.90;;;;;;5073824;28;20040;-84
2022/09/17 10:07:50;;;;;;;5.60;0.90;;;15.90;94.10;;;;;;5071863;28;20056;-81
2022/09/17 10:10:15;;;;;;;7.63;1.35;;;16.00;94.10;;;;;;5073453;28;20461;-83
2022/09/17 10:12:41;;;;;;;5.03;1.02;;;16.10;93.90;;;;;;5068145;28;20040;-81
2022/09/17 10:15:27;;;;;;;5.47;0.93;;;16.20;93.20;;;;;;5072314;28;20050;-83
2022/09/17 10:18:19;;;;;;;8.63;1.13;;;16.20;93.20;;;;;;5069579;28;20103;-81
2022/09/17 10:20:48;;;;;;;4.20;0.90;;;16.10;92.50;;;;;;5070943;28;20027;-80
2022/09/17 10:23:13;;;;;;;5.03;1.10;;;16.00;92.20;;;;;;5072060;28;20024;-82
2022/09/17 10:25:42;;;;;;;5.72;0.98;;;16.00;91.60;;;;;;5072300;28;20073;-84
2022/09/17 10:28:28;;;;;;;4.95;1.17;;;15.90;91.90;;;;;;5072092;28;20033;-83
2022/09/17 10:31:00;;;;;;;3.22;0.63;;;15.80;92.00;;;;;;5060271;28;20036;-82
2022/09/17 10:33:31;;;;;;;8.90;1.17;;;15.70;91.80;;;;;;5077753;28;20035;-83
2022/09/17 10:36:05;;;;;;;2.80;0.75;;;15.70;92.00;;;;;;5072558;28;20354;-81
2022/09/17 10:38:35;;;;;;;5.95;0.73;;;15.60;92.20;;;;;;5076882;28;20071;-80
2022/09/17 10:41:27;;;;;;;6.43;1.38;;;15.70;93.00;;;;;;5090260;28;20093;-82
2022/09/17 10:43:52;;;;;;;12.57;3.30;;;15.80;92.80;;;;;;5094720;28;20092;-81
2022/09/17 10:46:27;;;;;;;7.82;1.17;;;15.90;92.70;;;;;;5079817;28;20056;-85
2022/09/17 10:49:09;;;;;;;6.25;1.38;;;16.20;92.60;;;;;;5086356;28;20051;-83
2022/09/17 10:51:35;;;;;;;6.00;0.98;;;16.40;91.40;;;;;;5084770;28;20028;-82
2022/09/17 10:54:13;;;;;;;3.70;1.00;;;16.50;91.00;;;;;;5080056;28;20045;-82
2022/09/17 10:56:47;;;;;;;2.75;0.60;;;16.60;91.90;;;;;;5073049;28;20047;-84
2022/09/17 11:00:12;;;;;;;5.65;1.20;;;16.80;93.70;;;;;;5069100;28;20024;-85
2022/09/17 11:03:04;;;;;;;2.78;0.90;;;16.90;91.30;;;;;;5010880;28;20454;-83
2022/09/17 11:06:06;;;;;;;5.03;1.15;;;17.20;89.80;;;;;;5005357;28;20026;-83
2022/09/17 11:08:56;;;;;;;6.45;0.88;;;17.20;87.30;;;;;;5064270;28;20045;-84
2022/09/17 11:11:40;;;;;;;3.92;1.50;;;17.10;86.50;;;;;;5053911;28;20052;-84
2022/09/17 11:14:54;;;;;;;6.38;2.90;;;17.10;90.00;;;;;;5067674;28;20029;-84
2022/09/17 11:17:26;;;;;;;6.53;1.20;;;17.20;91.20;;;;;;5068112;28;20028;-82
2022/09/17 11:20:27;;;;;;;3.67;1.27;;;17.20;92.00;;;;;;5067363;28;20027;-82
2022/09/17 11:23:30;;;;;;;6.40;1.05;;;17.20;92.30;;;;;;5068323;28;20020;-82
2022/09/17 11:26:19;;;;;;;4.50;1.00;;;17.00;92.40;;;;;;5060395;28;20024;-83
2022/09/17 11:29:13;;;;;;;3.05;1.17;;;16.40;94.00;;;;;;5070148;28;20020;-81
2022/09/17 11:31:49;;;;;;;2.63;0.50;;;16.10;94.10;;;;;;5070436;28;20123;-80
2022/09/17 11:34:29;;;;;;;2.95;0.95;;;15.80;93.90;;;;;;5066847;28;20043;-83
2022/09/17 11:37:10;;;;;;;4.82;0.98;;;15.60;94.80;;;;;;5063200;28;20017;-82
2022/09/17 11:39:47;;;;;;;3.95;1.52;;;15.40;94.40;;;;;;5071847;28;20024;-82
2022/09/17 11:42:19;;;;;;;10.82;1.50;;;15.30;95.20;;;;;;5068389;28;20020;-82
2022/09/17 11:44:58;;;;;;;4.03;1.00;;;15.20;95.60;;;;;;5071262;28;20027;-84
2022/09/17 11:47:43;;;;;;;3.38;0.93;;;15.20;95.10;;;;;;5068193;28;20652;-83
2022/09/17 11:50:22;;;;;;;3.08;0.70;;;15.30;94.90;;;;;;5068569;28;20033;-82
2022/09/17 11:53:28;;;;;;;5.13;0.90;;;15.40;95.60;;;;;;5054959;28;20031;-83
2022/09/17 11:56:01;;;;;;;7.20;1.33;;;15.50;94.90;;;;;;5074184;28;20044;-84
2022/09/17 11:58:42;;;;;;;4.57;0.70;;;15.80;95.40;;;;;;5069528;28;20355;-83
2022/09/17 12:01:56;;;;;;;5.75;1.00;;;16.00;94.90;;;;;;5070980;28;20074;-81
2022/09/17 12:04:35;;;;;;;;;;;16.10;94.60;;;;;;5010406;28;20029;-82
2022/09/17 12:07:35;;;;;;;2.83;0.95;;;16.10;95.30;;;;;;5027382;28;19913;-87
2022/09/17 12:10:26;;;;;;;3.55;0.88;;;16.30;96.20;;;;;;5055634;28;20021;-85
2022/09/17 12:12:58;;;;;;;6.68;1.13;;;16.60;96.10;;;;;;5069656;28;20460;-82
2022/09/17 12:15:28;;;;;;;4.15;1.02;;;17.00;95.10;;;;;;5063472;28;20052;-85
2022/09/17 12:18:35;;;;;;;6.55;1.35;;;17.20;94.10;;;;;;5066218;28;20020;-84
2022/09/17 12:21:03;;;;;;;5.22;0.98;;;17.60;93.20;;;;;;5070208;28;20044;-84
2022/09/17 12:23:37;;;;;;;5.13;0.90;;;17.80;92.70;;;;;;5059346;28;20641;-80
2022/09/17 12:26:21;;;;;;;5.35;1.23;;;18.10;91.20;;;;;;5063448;28;20039;-82
2022/09/17 12:29:00;;;;;;;2.25;0.73;;;18.30;91.20;;;;;;5067395;28;20021;-81
2022/09/17 12:31:37;;;;;;;4.85;0.98;;;18.40;90.10;;;;;;5067381;28;20031;-81
2022/09/17 12:34:45;;;;;;;2.92;0.93;;;18.50;88.40;;;;;;5065709;28;20037;-81
2022/09/17 12:37:34;;;;;;;5.63;0.90;;;18.70;88.00;;;;;;5040282;28;20086;-82
2022/09/17 12:40:16;;;;;;;8.60;1.10;;;18.60;85.80;;;;;;5067828;28;20035;-82
2022/09/17 12:42:58;;;;;;;4.15;1.20;;;18.60;85.60;;;;;;5067979;28;20788;-80
2022/09/17 12:45:51;;;;;;;3.85;0.95;;;18.50;85.10;;;;;;5066948;28;20020;-82
2022/09/17 12:48:37;;;;;;;6.15;1.25;;;18.60;86.20;;;;;;5069326;28;20032;-82
2022/09/17 12:51:46;;;;;;;4.88;0.98;;;18.70;85.30;;;;;;5067810;28;20032;-81
2022/09/17 12:54:35;;;;;;;9.23;1.85;;;18.80;83.90;;;;;;5065777;28;20112;-84
2022/09/17 12:57:38;;;;;;;2.92;0.85;;;19.00;85.00;;;;;;5059675;28;20048;-83
2022/09/17 13:00:07;;;;;;;5.43;0.88;;;19.10;81.40;;;;;;5066105;28;20381;-83
2022/09/17 13:02:41;;;;;;;7.10;0.90;;;19.10;79.70;;;;;;5068989;28;20040;-84
2022/09/17 13:05:33;;;;;;;3.90;0.93;;;19.10;78.50;;;;;;5069686;28;20336;-82
2022/09/17 13:08:11;;;;;;;6.33;0.90;;;19.00;79.60;;;;;;5067249;28;20079;-86
2022/09/17 13:11:14;;;;;;;6.50;0.90;;;18.90;79.50;;;;;;5069497;28;20021;-84
2022/09/17 13:13:54;;;;;;;3.60;0.95;;;18.90;81.30;;;;;;5068277;28;20397;-84
2022/09/17 13:16:34;;;;;;;3.17;0.60;;;19.00;81.60;;;;;;5070477;28;20059;-84
2022/09/17 13:20:17;;;;;;;2.95;0.70;;;19.00;80.90;;;;;;5068587;28;20029;-83